createdAt,value
2019-05-15T00:03:54.688Z,68.85
2019-05-15T00:09:19.054Z,68.59
2019-05-15T00:14:39.277Z,69.67
2019-05-15T00:19:59.960Z,70.83
2019-05-15T00:25:22.761Z,71.34
2019-05-15T00:30:42.941Z,71.46
2019-05-15T00:36:03.472Z,71.44
2019-05-15T00:41:24.007Z,73.50
2019-05-15T00:46:44.539Z,73.17
2019-05-15T00:52:05.104Z,73.88
2019-05-15T00:57:25.649Z,74.91
2019-05-15T01:02:46.174Z,75.73
2019-05-15T01:08:08.223Z,75.54
2019-05-15T01:13:28.956Z,76.54
2019-05-15T01:18:50.182Z,76.02
2019-05-15T01:24:10.736Z,77.77
2019-05-15T01:29:41.903Z,77.34
2019-05-15T01:34:53.775Z,77.83
2019-05-15T01:40:14.411Z,78.58
2019-05-15T01:45:35.073Z,78.46
2019-05-15T01:50:55.619Z,79.69
2019-05-15T01:56:18.579Z,79.99
2019-05-15T02:01:39.188Z,79.84
2019-05-15T02:07:00.060Z,79.82
2019-05-15T02:12:21.095Z,80.46
2019-05-15T02:17:41.639Z,81.17
2019-05-15T02:23:02.299Z,81.82
2019-05-15T02:28:22.984Z,82.20
2019-05-15T02:33:43.577Z,83.23
2019-05-15T02:39:04.178Z,83.20
2019-05-15T02:44:24.718Z,83.60
2019-05-15T02:49:45.274Z,83.55
2019-05-15T02:55:08.937Z,83.06
2019-05-15T03:00:41.855Z,83.37
2019-05-15T03:05:51.731Z,83.59
2019-05-15T03:11:12.396Z,83.36
2019-05-15T03:16:33.558Z,83.22
2019-05-15T03:21:54.193Z,83.19
2019-05-15T03:27:14.821Z,82.90
2019-05-15T03:32:43.675Z,83.46
2019-05-15T03:37:59.865Z,83.06
2019-05-15T03:43:20.084Z,82.80
2019-05-15T03:48:40.732Z,82.53
2019-05-15T03:54:01.317Z,82.68
2019-05-15T03:59:21.881Z,82.68
2019-05-15T04:04:42.507Z,82.12
2019-05-15T04:10:03.221Z,82.32
2019-05-15T04:15:24.727Z,82.22
2019-05-15T04:20:45.325Z,82.12
2019-05-15T04:26:09.483Z,82.38
2019-05-15T04:31:50.803Z,80.82
2019-05-15T04:36:54.215Z,80.73
2019-05-15T04:42:14.801Z,80.80
2019-05-15T04:47:35.370Z,80.26
2019-05-15T04:52:59.043Z,80.93
2019-05-15T04:58:20.679Z,81.46
2019-05-15T05:03:40.729Z,80.80
2019-05-15T05:09:01.325Z,80.51
2019-05-15T05:14:21.993Z,79.86
2019-05-15T05:19:42.552Z,79.67
2019-05-15T05:25:03.105Z,80.03
2019-05-15T05:30:24.446Z,79.96
2019-05-15T05:35:45.267Z,80.29
2019-05-15T05:41:08.201Z,79.54
2019-05-15T05:46:29.032Z,79.10
2019-05-15T05:51:49.612Z,79.39
2019-05-15T05:57:10.177Z,80.74
2019-05-15T06:02:43.853Z,80.56
2019-05-15T06:07:53.110Z,80.19
2019-05-15T06:13:13.707Z,80.20
2019-05-15T06:18:34.394Z,80.30
2019-05-15T06:23:56.381Z,81.03
2019-05-15T06:29:17.940Z,81.06
2019-05-15T06:34:38.632Z,80.89
2019-05-15T06:39:59.718Z,80.60
2019-05-15T06:45:20.776Z,80.96
2019-05-15T06:50:49.097Z,80.66
2019-05-15T06:56:10.339Z,80.40
2019-05-15T07:01:30.939Z,79.46
2019-05-15T07:06:51.599Z,79.38
2019-05-15T07:12:12.170Z,79.78
2019-05-15T07:17:32.768Z,79.24
2019-05-15T07:22:53.348Z,78.56
2019-05-15T07:28:13.944Z,78.35
2019-05-15T07:33:40.366Z,77.83
2019-05-15T07:38:57.950Z,77.41
2019-05-15T07:44:19.044Z,76.56
2019-05-15T07:49:39.651Z,75.67
2019-05-15T07:55:00.224Z,75.42
2019-05-15T08:00:28.873Z,74.67
2019-05-15T08:05:58.802Z,74.91
2019-05-15T08:11:20.464Z,74.59
2019-05-15T08:16:34.463Z,73.95
2019-05-15T08:21:55.015Z,75.54
2019-05-15T08:27:15.741Z,75.60
2019-05-15T08:32:38.707Z,74.84
2019-05-15T08:37:58.735Z,75.26
2019-05-15T08:43:19.402Z,74.62
2019-05-15T08:48:39.965Z,74.64
2019-05-15T08:54:00.557Z,74.36
2019-05-15T08:59:21.255Z,74.22
2019-05-15T09:04:41.833Z,73.83
2019-05-15T09:10:02.374Z,73.01
2019-05-15T09:15:26.265Z,72.07
2019-05-15T09:20:49.282Z,71.56
2019-05-15T09:26:09.424Z,71.08
2019-05-15T09:31:30.143Z,71.08
2019-05-15T09:36:50.765Z,71.95
2019-05-15T09:42:11.337Z,70.39
2019-05-15T09:47:31.901Z,68.00
2019-05-15T09:52:52.451Z,68.83
2019-05-15T09:58:13.035Z,69.05
2019-05-15T10:03:33.680Z,68.38
2019-05-15T10:08:54.296Z,68.45
2019-05-15T10:14:15.031Z,67.33
2019-05-15T10:19:35.668Z,65.47
2019-05-15T10:24:58.590Z,65.48
2019-05-15T10:30:19.689Z,66.14
2019-05-15T10:35:40.262Z,65.78
2019-05-15T10:41:08.714Z,64.87
2019-05-15T10:46:23.200Z,65.00
2019-05-15T10:51:43.763Z,63.87
2019-05-15T10:57:05.384Z,63.56
2019-05-15T11:02:28.921Z,63.86
2019-05-15T11:07:49.056Z,64.04
2019-05-15T11:13:09.614Z,63.36
2019-05-15T11:18:31.078Z,63.32
2019-05-15T11:23:51.642Z,63.83
2019-05-15T11:29:12.211Z,63.27
2019-05-15T11:34:32.783Z,63.17
2019-05-15T11:39:53.353Z,63.08
2019-05-15T11:45:14.009Z,62.90
2019-05-15T11:50:36.302Z,62.85
2019-05-15T11:55:56.844Z,62.68
2019-05-15T12:01:19.250Z,61.44
2019-05-15T12:06:39.845Z,60.46
2019-05-15T12:12:00.420Z,56.75
2019-05-15T12:17:20.999Z,56.75
2019-05-15T12:22:41.533Z,56.26
2019-05-15T12:28:02.104Z,54.69
2019-05-15T12:33:22.765Z,53.85
2019-05-15T12:38:43.631Z,52.54
2019-05-15T13:00:12.304Z,51.65
2019-05-15T13:05:29.080Z,49.85
2019-05-15T13:10:49.024Z,49.78
2019-05-15T13:16:09.639Z,50.83
2019-05-15T13:21:30.225Z,51.80
2019-05-15T13:26:50.795Z,50.96
2019-05-15T13:32:12.594Z,50.04
2019-05-15T13:37:30.587Z,48.66
2019-05-15T13:42:51.779Z,49.09
2019-05-15T13:48:11.710Z,47.67
2019-05-15T13:53:32.357Z,49.71
2019-05-15T13:58:52.941Z,50.53
2019-05-15T14:04:13.552Z,53.15
2019-05-15T14:09:34.735Z,55.14
2019-05-15T14:14:58.033Z,55.14
2019-05-15T14:20:18.704Z,55.05
2019-05-15T14:25:39.285Z,52.84
2019-05-15T14:30:59.987Z,52.86
2019-05-15T14:36:20.656Z,53.81
2019-05-15T14:41:41.234Z,54.74
2019-05-15T14:47:01.821Z,56.83
2019-05-15T14:52:22.556Z,58.38
2019-05-15T14:57:43.148Z,60.28
2019-05-15T15:03:04.190Z,64.31
2019-05-15T15:08:25.573Z,66.29
2019-05-15T15:13:46.343Z,67.58
2019-05-15T15:19:06.917Z,68.83
2019-05-15T15:24:27.490Z,68.96
2019-05-15T15:29:48.357Z,69.41
2019-05-15T15:35:10.348Z,71.48
2019-05-15T15:40:25.032Z,70.85
2019-05-15T15:45:45.597Z,73.79
2019-05-15T15:51:08.946Z,72.14
2019-05-15T15:56:29.116Z,71.99
2019-05-15T16:01:50.070Z,74.14
2019-05-15T16:07:10.593Z,75.49
2019-05-15T16:12:31.253Z,77.35
2019-05-15T16:17:52.369Z,78.68
2019-05-15T16:23:12.924Z,78.76
2019-05-15T16:28:33.491Z,79.62
2019-05-15T16:33:54.079Z,80.73
2019-05-15T16:39:14.966Z,80.25
2019-05-15T16:44:38.190Z,81.30
2019-05-15T16:49:58.062Z,81.51
2019-05-15T16:55:20.525Z,82.59
2019-05-15T17:00:41.561Z,82.59
2019-05-15T17:06:02.100Z,83.39
2019-05-15T17:11:22.684Z,83.60
2019-05-15T17:16:44.141Z,84.53
2019-05-15T17:22:04.689Z,84.68
2019-05-15T17:27:25.228Z,84.69
2019-05-15T17:32:45.848Z,85.72
2019-05-15T17:38:06.453Z,85.53
2019-05-15T17:43:28.749Z,85.31
2019-05-15T17:48:55.617Z,85.18
2019-05-15T17:54:13.954Z,85.52
2019-05-15T17:59:37.927Z,85.74
2019-05-15T18:05:00.923Z,85.47
2019-05-15T18:10:23.505Z,85.55
2019-05-15T18:15:45.747Z,85.65
2019-05-15T18:21:08.657Z,85.75
2019-05-15T18:26:29.678Z,86.60
2019-05-15T18:31:50.295Z,86.47
2019-05-15T18:37:13.240Z,86.70
2019-05-15T18:42:34.837Z,86.81
2019-05-15T18:47:58.470Z,86.71
2019-05-15T18:53:18.471Z,87.05
2019-05-15T18:58:40.429Z,87.87
2019-05-15T19:03:55.326Z,87.90
2019-05-15T19:09:18.986Z,88.19
2019-05-15T19:14:39.790Z,88.17
2019-05-15T19:20:02.503Z,88.09
2019-05-15T19:25:25.481Z,88.64
2019-05-15T19:30:48.157Z,88.57
2019-05-15T19:36:10.495Z,88.31
2019-05-15T19:41:32.807Z,88.71
2019-05-15T19:46:55.509Z,88.73
2019-05-15T19:52:18.074Z,88.43
2019-05-15T20:00:40.050Z,88.88
2019-05-15T20:06:04.313Z,88.74
2019-05-15T20:11:28.870Z,88.97
2019-05-15T20:16:52.517Z,89.07
2019-05-15T20:22:18.908Z,88.95
2019-05-15T20:27:44.884Z,89.04
2019-05-15T20:33:09.617Z,89.10
2019-05-15T20:38:34.004Z,88.95
2019-05-15T20:44:01.277Z,89.31
2019-05-15T20:49:28.443Z,89.35
2019-05-15T20:54:50.084Z,89.40
2019-05-15T21:00:13.932Z,89.25
2019-05-15T21:05:38.129Z,89.39
2019-05-15T21:11:02.896Z,89.23
2019-05-15T21:16:27.988Z,89.40
2019-05-15T21:21:51.272Z,89.40
2019-05-15T21:27:14.884Z,89.05
2019-05-15T21:32:38.513Z,89.13
2019-05-15T21:38:00.781Z,89.35
2019-05-15T21:43:24.730Z,89.31
2019-05-15T21:48:48.827Z,89.48
2019-05-15T21:54:12.779Z,89.56
2019-05-15T21:59:38.394Z,89.70
2019-05-15T22:05:02.996Z,89.82
2019-05-15T22:10:26.668Z,89.54
2019-05-15T22:15:52.400Z,89.40
2019-05-15T22:21:18.616Z,89.63
2019-05-15T22:26:41.875Z,89.72
2019-05-15T22:32:04.840Z,89.52
2019-05-15T22:37:29.554Z,89.05
2019-05-15T22:42:52.922Z,89.27
2019-05-15T22:48:18.235Z,89.26
2019-05-15T22:53:41.603Z,89.43
2019-05-15T22:59:08.414Z,89.55
2019-05-15T23:04:32.413Z,89.46
2019-05-15T23:09:58.309Z,89.48
2019-05-15T23:15:22.117Z,89.39
2019-05-15T23:20:47.848Z,89.53
2019-05-15T23:26:12.027Z,89.26
2019-05-15T23:31:34.532Z,89.63
2019-05-15T23:36:57.760Z,89.68
2019-05-15T23:42:22.641Z,89.75
2019-05-15T23:47:48.473Z,89.84
2019-05-15T23:53:10.741Z,89.91
2019-05-15T23:58:33.869Z,89.79
